PWSweather.com
Personal Weather Stations
Station Observations
133525
French Quarters West Seneca , West Seneca, NY 14224

French Quarters West Seneca West Seneca, NY 14224

Lat: 42.850058, Lon: -78.799754

Elevation: 603

Station Type: Davis Vantage Vue pro2

http://westsenecaweather.com/

High Low Average
Temperature 80.8°F27.1°F 54.6°F12.6°F 68.7°F20.4°F
Dew Point 70.5°F21.4°F 52.0°F11.1°F 60.6°F15.9°F
Winds 6.9 mph S11.1 mph S Calm Calm 1.5 mph 2.4 mph
Wind Gusts 12.7 mph20.4 mph -- 3.0 mph4.8 mph
Humidity 93% 46% 77%
Pressure 29.98 in1015.20 in 29.76 in1007.80 in -
Precipitation 0.06 in1.50 in - -
Hour Temp Dew Point Humidity Winds Wind Gusts Pressure Precip Precip Rate Daily Precip Total
12:00 AM 61.4°F16.3°C 57.2°F14.0°C 86% Calm Calm 1.2 mph1.9 kmh 29.95 in1014.2 mb - 0.00 in0.0 mm 0.00 in0.0 mm
12:10 AM 61.1°F16.2°C 57.2°F14.0°C 87% Calm Calm 2.3 mph3.7 kmh 29.96 in1014.6 mb - 0.00 in0.0 mm 0.00 in0.0 mm
12:20 AM 60.9°F16.1°C 57.0°F13.9°C 87% Calm Calm 1.2 mph1.9 kmh 29.95 in1014.2 mb - 0.00 in0.0 mm 0.00 in0.0 mm
12:30 AM 60.8°F16.0°C 56.9°F13.8°C 87% Calm Calm -- 29.95 in1014.2 mb - 0.00 in0.0 mm 0.00 in0.0 mm
12:40 AM 60.5°F15.8°C 56.6°F13.7°C 87% Calm Calm -- 29.95 in1014.2 mb - 0.00 in0.0 mm 0.00 in0.0 mm
12:50 AM 60.0°F15.6°C 56.4°F13.6°C 88% Calm Calm -- 29.95 in1014.2 mb - 0.00 in0.0 mm 0.00 in0.0 mm
01:00 AM 59.6°F15.3°C 56.4°F13.6°C 89% Calm Calm -- 29.96 in1014.6 mb - 0.00 in0.0 mm 0.00 in0.0 mm
01:10 AM 59.5°F15.3°C 56.2°F13.4°C 89% Calm Calm 1.2 mph1.9 kmh 29.96 in1014.6 mb - 0.00 in0.0 mm 0.00 in0.0 mm
01:20 AM 59.5°F15.3°C 55.9°F13.3°C 88% Calm Calm -- 29.96 in1014.6 mb - 0.00 in0.0 mm 0.00 in0.0 mm
01:30 AM 59.5°F15.3°C 55.6°F13.1°C 87% Calm Calm -- 29.96 in1014.6 mb - 0.00 in0.0 mm 0.00 in0.0 mm
01:40 AM 59.5°F15.3°C 55.3°F12.9°C 86% 1.2 mph S1.9 kmh S 2.3 mph3.7 kmh 29.96 in1014.6 mb - 0.00 in0.0 mm 0.00 in0.0 mm
01:50 AM 59.4°F15.2°C 55.2°F12.9°C 86% Calm Calm -- 29.96 in1014.6 mb - 0.00 in0.0 mm 0.00 in0.0 mm
02:00 AM 58.9°F14.9°C 54.7°F12.6°C 86% Calm Calm -- 29.96 in1014.6 mb - 0.00 in0.0 mm 0.00 in0.0 mm
02:10 AM 58.5°F14.7°C 54.6°F12.6°C 87% Calm Calm -- 29.96 in1014.6 mb - 0.00 in0.0 mm 0.00 in0.0 mm
02:20 AM 58.1°F14.5°C 54.3°F12.4°C 87% Calm Calm -- 29.96 in1014.6 mb - 0.00 in0.0 mm 0.00 in0.0 mm
02:30 AM 57.8°F14.3°C 54.3°F12.4°C 88% Calm Calm -- 29.96 in1014.6 mb - 0.00 in0.0 mm 0.00 in0.0 mm
02:40 AM 57.7°F14.3°C 54.2°F12.3°C 88% Calm Calm -- 29.96 in1014.6 mb - 0.00 in0.0 mm 0.00 in0.0 mm
02:50 AM 57.5°F14.2°C 53.9°F12.2°C 88% Calm Calm -- 29.96 in1014.6 mb - 0.00 in0.0 mm 0.00 in0.0 mm
03:00 AM 57.1°F13.9°C 53.6°F12.0°C 88% Calm Calm -- 29.96 in1014.6 mb - 0.00 in0.0 mm 0.00 in0.0 mm
03:10 AM 56.9°F13.8°C 53.7°F12.1°C 89% Calm Calm -- 29.96 in1014.6 mb - 0.00 in0.0 mm 0.00 in0.0 mm
03:20 AM 56.8°F13.8°C 53.6°F12.0°C 89% Calm Calm -- 29.96 in1014.6 mb - 0.00 in0.0 mm 0.00 in0.0 mm
03:30 AM 56.5°F13.6°C 53.3°F11.8°C 89% Calm Calm -- 29.96 in1014.6 mb - 0.00 in0.0 mm 0.00 in0.0 mm
03:40 AM 56.3°F13.5°C 53.4°F11.9°C 90% Calm Calm 2.3 mph3.7 kmh 29.97 in1014.9 mb - 0.00 in0.0 mm 0.00 in0.0 mm
03:50 AM 56.4°F13.6°C 53.5°F11.9°C 90% Calm Calm -- 29.97 in1014.9 mb - 0.00 in0.0 mm 0.00 in0.0 mm
04:00 AM 56.6°F13.7°C 53.4°F11.9°C 89% Calm Calm 3.5 mph5.6 kmh 29.97 in1014.9 mb - 0.00 in0.0 mm 0.00 in0.0 mm
04:10 AM 56.9°F13.8°C 53.4°F11.9°C 88% Calm Calm -- 29.97 in1014.9 mb - 0.00 in0.0 mm 0.00 in0.0 mm
04:20 AM 56.9°F13.8°C 53.4°F11.9°C 88% Calm Calm -- 29.96 in1014.6 mb - 0.00 in0.0 mm 0.00 in0.0 mm
04:30 AM 56.8°F13.8°C 53.6°F12.0°C 89% Calm Calm 1.2 mph1.9 kmh 29.96 in1014.6 mb - 0.00 in0.0 mm 0.00 in0.0 mm
04:40 AM 56.7°F13.7°C 53.2°F11.8°C 88% Calm Calm -- 29.97 in1014.9 mb - 0.00 in0.0 mm 0.00 in0.0 mm
04:50 AM 56.4°F13.6°C 53.2°F11.8°C 89% Calm Calm -- 29.97 in1014.9 mb - 0.00 in0.0 mm 0.00 in0.0 mm
05:00 AM 56.1°F13.4°C 52.9°F11.6°C 89% Calm Calm -- 29.97 in1014.9 mb - 0.00 in0.0 mm 0.00 in0.0 mm
05:10 AM 55.8°F13.2°C 52.6°F11.4°C 89% Calm Calm -- 29.97 in1014.9 mb - 0.00 in0.0 mm 0.00 in0.0 mm
05:20 AM 55.4°F13.0°C 52.5°F11.4°C 90% Calm Calm -- 29.97 in1014.9 mb - 0.00 in0.0 mm 0.00 in0.0 mm
05:30 AM 54.9°F12.7°C 52.0°F11.1°C 90% Calm Calm -- 29.96 in1014.6 mb - 0.00 in0.0 mm 0.00 in0.0 mm
05:40 AM 54.7°F12.6°C 52.1°F11.2°C 91% Calm Calm -- 29.96 in1014.6 mb - 0.00 in0.0 mm 0.00 in0.0 mm
05:50 AM 54.6°F12.6°C 52.3°F11.3°C 92% Calm Calm -- 29.96 in1014.6 mb - 0.00 in0.0 mm 0.00 in0.0 mm
06:00 AM 54.6°F12.6°C 52.6°F11.4°C 93% Calm Calm -- 29.96 in1014.6 mb - 0.00 in0.0 mm 0.00 in0.0 mm
06:10 AM 55.1°F12.8°C 53.1°F11.7°C 93% Calm Calm -- 29.97 in1014.9 mb - 0.00 in0.0 mm 0.00 in0.0 mm
06:20 AM 55.9°F13.3°C 53.6°F12.0°C 92% Calm Calm -- 29.97 in1014.9 mb - 0.00 in0.0 mm 0.00 in0.0 mm
06:30 AM 56.9°F13.8°C 54.0°F12.2°C 90% Calm Calm -- 29.96 in1014.6 mb - 0.00 in0.0 mm 0.00 in0.0 mm
06:40 AM 57.4°F14.1°C 54.2°F12.3°C 89% Calm Calm -- 29.97 in1014.9 mb - 0.00 in0.0 mm 0.00 in0.0 mm
06:50 AM 57.9°F14.4°C 54.4°F12.4°C 88% Calm Calm -- 29.97 in1014.9 mb - 0.00 in0.0 mm 0.00 in0.0 mm
07:00 AM 58.6°F14.8°C 54.8°F12.7°C 87% Calm Calm -- 29.97 in1014.9 mb - 0.00 in0.0 mm 0.00 in0.0 mm
07:10 AM 59.1°F15.1°C 54.9°F12.7°C 86% Calm Calm -- 29.98 in1015.2 mb - 0.00 in0.0 mm 0.00 in0.0 mm
07:20 AM 59.3°F15.2°C 55.1°F12.8°C 86% Calm Calm -- 29.98 in1015.2 mb - 0.00 in0.0 mm 0.00 in0.0 mm
07:30 AM 59.5°F15.3°C 55.3°F12.9°C 86% Calm Calm -- 29.97 in1014.9 mb - 0.00 in0.0 mm 0.00 in0.0 mm
07:40 AM 59.8°F15.4°C 55.6°F13.1°C 86% Calm Calm -- 29.97 in1014.9 mb - 0.00 in0.0 mm 0.00 in0.0 mm
07:50 AM 60.7°F15.9°C 56.8°F13.8°C 87% Calm Calm 1.2 mph1.9 kmh 29.97 in1014.9 mb - 0.00 in0.0 mm 0.00 in0.0 mm
08:00 AM 61.5°F16.4°C 56.6°F13.7°C 84% Calm Calm -- 29.97 in1014.9 mb - 0.00 in0.0 mm 0.00 in0.0 mm
08:10 AM 62.5°F16.9°C 57.3°F14.1°C 83% 2.3 mph S3.7 kmh S 3.5 mph5.6 kmh 29.97 in1014.9 mb - 0.00 in0.0 mm 0.00 in0.0 mm
08:20 AM 63.1°F17.3°C 57.2°F14.0°C 81% 1.2 mph S1.9 kmh S 2.3 mph3.7 kmh 29.97 in1014.9 mb - 0.00 in0.0 mm 0.00 in0.0 mm
08:30 AM 63.8°F17.7°C 57.9°F14.4°C 81% 1.2 mph S1.9 kmh S 3.5 mph5.6 kmh 29.96 in1014.6 mb - 0.00 in0.0 mm 0.00 in0.0 mm
08:40 AM 64.3°F17.9°C 57.7°F14.3°C 79% 2.3 mph S3.7 kmh S 2.3 mph3.7 kmh 29.96 in1014.6 mb - 0.00 in0.0 mm 0.00 in0.0 mm
08:50 AM 65.2°F18.4°C 58.1°F14.5°C 78% 1.2 mph S1.9 kmh S 3.5 mph5.6 kmh 29.96 in1014.6 mb - 0.00 in0.0 mm 0.00 in0.0 mm
09:00 AM 66.1°F18.9°C 58.6°F14.8°C 77% Calm Calm -- 29.97 in1014.9 mb - 0.00 in0.0 mm 0.00 in0.0 mm
09:10 AM 66.9°F19.4°C 58.7°F14.8°C 75% 2.3 mph S3.7 kmh S 3.5 mph5.6 kmh 29.96 in1014.6 mb - 0.00 in0.0 mm 0.00 in0.0 mm
09:20 AM 67.7°F19.8°C 58.7°F14.8°C 73% Calm Calm 1.2 mph1.9 kmh 29.96 in1014.6 mb - 0.00 in0.0 mm 0.00 in0.0 mm
09:30 AM 69.0°F20.6°C 58.8°F14.9°C 70% Calm Calm -- 29.96 in1014.6 mb - 0.00 in0.0 mm 0.00 in0.0 mm
09:40 AM 69.5°F20.8°C 58.5°F14.7°C 68% 2.3 mph S3.7 kmh S 3.5 mph5.6 kmh 29.96 in1014.6 mb - 0.00 in0.0 mm 0.00 in0.0 mm
09:50 AM 69.9°F21.1°C 58.9°F14.9°C 68% Calm Calm 3.5 mph5.6 kmh 29.95 in1014.2 mb - 0.00 in0.0 mm 0.00 in0.0 mm
10:00 AM 70.4°F21.3°C 57.6°F14.2°C 64% 1.2 mph SSE1.9 kmh SSE 3.5 mph5.6 kmh 29.95 in1014.2 mb - 0.00 in0.0 mm 0.00 in0.0 mm
10:10 AM 70.1°F21.2°C 57.4°F14.1°C 64% 3.5 mph S5.6 kmh S 4.6 mph7.4 kmh 29.94 in1013.9 mb - 0.00 in0.0 mm 0.00 in0.0 mm
10:20 AM 70.4°F21.3°C 56.8°F13.8°C 62% 1.2 mph S1.9 kmh S 3.5 mph5.6 kmh 29.94 in1013.9 mb - 0.00 in0.0 mm 0.00 in0.0 mm
10:30 AM 71.1°F21.7°C 57.4°F14.1°C 62% 1.2 mph S1.9 kmh S 2.3 mph3.7 kmh 29.93 in1013.5 mb - 0.00 in0.0 mm 0.00 in0.0 mm
10:40 AM 71.7°F22.1°C 57.1°F13.9°C 60% Calm Calm 1.2 mph1.9 kmh 29.94 in1013.9 mb - 0.00 in0.0 mm 0.00 in0.0 mm
10:50 AM 72.1°F22.3°C 55.0°F12.8°C 55% 1.2 mph S1.9 kmh S 3.5 mph5.6 kmh 29.94 in1013.9 mb - 0.00 in0.0 mm 0.00 in0.0 mm
11:00 AM 72.9°F22.7°C 55.8°F13.2°C 55% 1.2 mph WSW1.9 kmh WSW 3.5 mph5.6 kmh 29.95 in1014.2 mb - 0.00 in0.0 mm 0.00 in0.0 mm
11:10 AM 73.0°F22.8°C 52.1°F11.2°C 48% 1.2 mph S1.9 kmh S 1.2 mph1.9 kmh 29.95 in1014.2 mb - 0.00 in0.0 mm 0.00 in0.0 mm
11:20 AM 74.1°F23.4°C 53.7°F12.1°C 49% Calm Calm 1.2 mph1.9 kmh 29.94 in1013.9 mb - 0.00 in0.0 mm 0.00 in0.0 mm
11:30 AM 74.4°F23.6°C 54.0°F12.2°C 49% Calm Calm -- 29.93 in1013.5 mb - 0.00 in0.0 mm 0.00 in0.0 mm
11:40 AM 75.5°F24.2°C 53.8°F12.1°C 47% 1.2 mph W1.9 kmh W 2.3 mph3.7 kmh 29.94 in1013.9 mb - 0.00 in0.0 mm 0.00 in0.0 mm
11:50 AM 75.4°F24.1°C 53.8°F12.1°C 47% 1.2 mph S1.9 kmh S 4.6 mph7.4 kmh 29.94 in1013.9 mb - 0.00 in0.0 mm 0.00 in0.0 mm
12:00 PM 75.7°F24.3°C 53.4°F11.9°C 46% Calm Calm -- 29.95 in1014.2 mb - 0.00 in0.0 mm 0.00 in0.0 mm
12:10 PM 75.3°F24.1°C 54.3°F12.4°C 48% 1.2 mph NNW1.9 kmh NNW 1.2 mph1.9 kmh 29.95 in1014.2 mb - 0.00 in0.0 mm 0.00 in0.0 mm
12:20 PM 74.0°F23.3°C 55.2°F12.9°C 52% 1.2 mph W1.9 kmh W 3.5 mph5.6 kmh 29.96 in1014.6 mb - 0.00 in0.0 mm 0.00 in0.0 mm
12:30 PM 72.0°F22.2°C 55.0°F12.8°C 55% 4.6 mph WNW7.4 kmh WNW 5.8 mph9.3 kmh 29.96 in1014.6 mb - 0.00 in0.0 mm 0.00 in0.0 mm
12:40 PM 68.7°F20.4°C 57.7°F14.3°C 68% 1.2 mph NW1.9 kmh NW 3.5 mph5.6 kmh 29.95 in1014.2 mb - 0.01 in0.3 mm 0.01 in0.3 mm
12:50 PM 67.3°F19.6°C 56.8°F13.8°C 69% Calm Calm -- 29.94 in1013.9 mb - 0.00 in0.0 mm 0.01 in0.3 mm
01:00 PM 66.6°F19.2°C 58.8°F14.9°C 76% Calm Calm -- 29.92 in1013.2 mb - 0.01 in0.3 mm 0.02 in0.5 mm
01:10 PM 65.6°F18.7°C 60.0°F15.6°C 82% Calm Calm -- 29.91 in1012.9 mb - 0.02 in0.5 mm 0.03 in0.8 mm
01:20 PM 64.7°F18.2°C 60.1°F15.6°C 85% 1.2 mph S1.9 kmh S 3.5 mph5.6 kmh 29.88 in1011.9 mb - 0.02 in0.5 mm 0.05 in1.3 mm
01:30 PM 64.5°F18.1°C 59.9°F15.5°C 85% Calm Calm -- 29.89 in1012.2 mb - 0.00 in0.0 mm 0.05 in1.3 mm
01:40 PM 65.2°F18.4°C 60.3°F15.7°C 84% 1.2 mph S1.9 kmh S 2.3 mph3.7 kmh 29.90 in1012.5 mb - 0.00 in0.0 mm 0.05 in1.3 mm
01:50 PM 66.1°F18.9°C 60.8°F16.0°C 83% Calm Calm 1.2 mph1.9 kmh 29.91 in1012.9 mb - 0.00 in0.0 mm 0.05 in1.3 mm
02:00 PM 66.7°F19.3°C 61.0°F16.1°C 82% Calm Calm -- 29.89 in1012.2 mb - 0.00 in0.0 mm 0.05 in1.3 mm
02:10 PM 67.5°F19.7°C 61.8°F16.6°C 82% 1.2 mph SE1.9 kmh SE 2.3 mph3.7 kmh 29.88 in1011.9 mb - 0.00 in0.0 mm 0.05 in1.3 mm
02:20 PM 69.0°F20.6°C 62.2°F16.8°C 79% 2.3 mph S3.7 kmh S 2.3 mph3.7 kmh 29.86 in1011.2 mb - 0.00 in0.0 mm 0.05 in1.3 mm
02:30 PM 71.0°F21.7°C 62.3°F16.8°C 74% 3.5 mph SSE5.6 kmh SSE 4.6 mph7.4 kmh 29.85 in1010.8 mb - 0.00 in0.0 mm 0.05 in1.3 mm
02:40 PM 72.9°F22.7°C 64.1°F17.8°C 74% 2.3 mph S3.7 kmh S 8.1 mph13.0 kmh 29.85 in1010.8 mb - 0.00 in0.0 mm 0.05 in1.3 mm
02:50 PM 74.4°F23.6°C 64.8°F18.2°C 72% 2.3 mph S3.7 kmh S 3.5 mph5.6 kmh 29.85 in1010.8 mb - 0.00 in0.0 mm 0.05 in1.3 mm
03:00 PM 75.7°F24.3°C 64.8°F18.2°C 69% 3.5 mph SSE5.6 kmh SSE 6.9 mph11.1 kmh 29.84 in1010.5 mb - 0.00 in0.0 mm 0.05 in1.3 mm
03:10 PM 78.0°F25.6°C 66.6°F19.2°C 68% 4.6 mph S7.4 kmh S 6.9 mph11.1 kmh 29.84 in1010.5 mb - 0.00 in0.0 mm 0.05 in1.3 mm
03:20 PM 79.0°F26.1°C 65.8°F18.8°C 64% 6.9 mph S11.1 kmh S 8.1 mph13.0 kmh 29.84 in1010.5 mb - 0.00 in0.0 mm 0.05 in1.3 mm
03:30 PM 79.8°F26.6°C 66.1°F18.9°C 63% 5.8 mph S9.3 kmh S 9.2 mph14.8 kmh 29.84 in1010.5 mb - 0.00 in0.0 mm 0.05 in1.3 mm
03:40 PM 79.9°F26.6°C 66.2°F19.0°C 63% 5.8 mph SSW9.3 kmh SSW 11.5 mph18.5 kmh 29.84 in1010.5 mb - 0.00 in0.0 mm 0.05 in1.3 mm
03:50 PM 79.4°F26.3°C 66.2°F19.0°C 64% 5.8 mph S9.3 kmh S 12.7 mph20.4 kmh 29.83 in1010.2 mb - 0.00 in0.0 mm 0.05 in1.3 mm
04:00 PM 79.1°F26.2°C 67.2°F19.6°C 67% 3.5 mph SW5.6 kmh SW 10.4 mph16.7 kmh 29.84 in1010.5 mb - 0.00 in0.0 mm 0.05 in1.3 mm
04:10 PM 79.6°F26.4°C 67.7°F19.8°C 67% 5.8 mph SSW9.3 kmh SSW 9.2 mph14.8 kmh 29.83 in1010.2 mb - 0.00 in0.0 mm 0.05 in1.3 mm
04:20 PM 79.7°F26.5°C 68.2°F20.1°C 68% 4.6 mph S7.4 kmh S 9.2 mph14.8 kmh 29.82 in1009.8 mb - 0.00 in0.0 mm 0.05 in1.3 mm
04:30 PM 79.9°F26.6°C 68.8°F20.4°C 69% 3.5 mph SSE5.6 kmh SSE 9.2 mph14.8 kmh 29.82 in1009.8 mb - 0.00 in0.0 mm 0.05 in1.3 mm
04:40 PM 80.5°F26.9°C 69.0°F20.6°C 68% 5.8 mph S9.3 kmh S 10.4 mph16.7 kmh 29.83 in1010.2 mb - 0.00 in0.0 mm 0.05 in1.3 mm
04:50 PM 79.9°F26.6°C 68.8°F20.4°C 69% 5.8 mph WSW9.3 kmh WSW 9.2 mph14.8 kmh 29.83 in1010.2 mb - 0.00 in0.0 mm 0.05 in1.3 mm
05:00 PM 80.4°F26.9°C 69.3°F20.7°C 69% 3.5 mph SSW5.6 kmh SSW 5.8 mph9.3 kmh 29.82 in1009.8 mb - 0.00 in0.0 mm 0.05 in1.3 mm
05:10 PM 80.8°F27.1°C 69.2°F20.7°C 68% 4.6 mph WSW7.4 kmh WSW 11.5 mph18.5 kmh 29.82 in1009.8 mb - 0.00 in0.0 mm 0.05 in1.3 mm
05:20 PM 80.4°F26.9°C 68.9°F20.5°C 68% 3.5 mph SSW5.6 kmh SSW 6.9 mph11.1 kmh 29.82 in1009.8 mb - 0.00 in0.0 mm 0.05 in1.3 mm
05:30 PM 79.8°F26.6°C 68.8°F20.4°C 69% 3.5 mph WSW5.6 kmh WSW 3.5 mph5.6 kmh 29.82 in1009.8 mb - 0.00 in0.0 mm 0.05 in1.3 mm
05:40 PM 80.0°F26.7°C 69.3°F20.7°C 70% 4.6 mph SSW7.4 kmh SSW 9.2 mph14.8 kmh 29.82 in1009.8 mb - 0.00 in0.0 mm 0.05 in1.3 mm
05:50 PM 79.9°F26.6°C 69.2°F20.7°C 70% 4.6 mph S7.4 kmh S 9.2 mph14.8 kmh 29.82 in1009.8 mb - 0.00 in0.0 mm 0.05 in1.3 mm
06:00 PM 79.6°F26.4°C 69.0°F20.6°C 70% 3.5 mph S5.6 kmh S 6.9 mph11.1 kmh 29.82 in1009.8 mb - 0.00 in0.0 mm 0.05 in1.3 mm
06:10 PM 79.6°F26.4°C 69.0°F20.6°C 70% 2.3 mph SW3.7 kmh SW 8.1 mph13.0 kmh 29.82 in1009.8 mb - 0.00 in0.0 mm 0.05 in1.3 mm
06:20 PM 79.6°F26.4°C 68.5°F20.3°C 69% 3.5 mph WSW5.6 kmh WSW 6.9 mph11.1 kmh 29.82 in1009.8 mb - 0.00 in0.0 mm 0.05 in1.3 mm
06:30 PM 79.6°F26.4°C 68.6°F20.3°C 69% 3.5 mph WSW5.6 kmh WSW 4.6 mph7.4 kmh 29.82 in1009.8 mb - 0.00 in0.0 mm 0.05 in1.3 mm
06:40 PM 79.5°F26.4°C 68.0°F20.0°C 68% 2.3 mph SW3.7 kmh SW 3.5 mph5.6 kmh 29.82 in1009.8 mb - 0.00 in0.0 mm 0.05 in1.3 mm
06:50 PM 79.2°F26.2°C 68.2°F20.1°C 69% 3.5 mph S5.6 kmh S 6.9 mph11.1 kmh 29.82 in1009.8 mb - 0.00 in0.0 mm 0.05 in1.3 mm
07:00 PM 78.9°F26.1°C 67.9°F19.9°C 69% 4.6 mph W7.4 kmh W 6.9 mph11.1 kmh 29.81 in1009.5 mb - 0.00 in0.0 mm 0.05 in1.3 mm
07:10 PM 78.4°F25.8°C 67.8°F19.9°C 70% 2.3 mph SSW3.7 kmh SSW 8.1 mph13.0 kmh 29.81 in1009.5 mb - 0.00 in0.0 mm 0.05 in1.3 mm
07:20 PM 78.2°F25.7°C 68.0°F20.0°C 71% 1.2 mph WSW1.9 kmh WSW 2.3 mph3.7 kmh 29.81 in1009.5 mb - 0.00 in0.0 mm 0.05 in1.3 mm
07:30 PM 78.0°F25.6°C 68.2°F20.1°C 72% 1.2 mph S1.9 kmh S 5.8 mph9.3 kmh 29.81 in1009.5 mb - 0.00 in0.0 mm 0.05 in1.3 mm
07:40 PM 77.9°F25.5°C 68.1°F20.1°C 72% 2.3 mph S3.7 kmh S 3.5 mph5.6 kmh 29.81 in1009.5 mb - 0.00 in0.0 mm 0.05 in1.3 mm
07:50 PM 77.8°F25.4°C 68.0°F20.0°C 72% 1.2 mph S1.9 kmh S 2.3 mph3.7 kmh 29.80 in1009.1 mb - 0.00 in0.0 mm 0.05 in1.3 mm
08:00 PM 77.9°F25.5°C 68.1°F20.1°C 72% 1.2 mph SW1.9 kmh SW 4.6 mph7.4 kmh 29.80 in1009.1 mb - 0.00 in0.0 mm 0.05 in1.3 mm
08:10 PM 78.0°F25.6°C 68.2°F20.1°C 72% 1.2 mph WSW1.9 kmh WSW 2.3 mph3.7 kmh 29.80 in1009.1 mb - 0.00 in0.0 mm 0.05 in1.3 mm
08:20 PM 77.7°F25.4°C 68.0°F20.0°C 72% 2.3 mph SW3.7 kmh SW 4.6 mph7.4 kmh 29.80 in1009.1 mb - 0.00 in0.0 mm 0.05 in1.3 mm
08:30 PM 77.4°F25.2°C 68.1°F20.1°C 73% 2.3 mph SW3.7 kmh SW 3.5 mph5.6 kmh 29.80 in1009.1 mb - 0.00 in0.0 mm 0.05 in1.3 mm
08:40 PM 76.9°F24.9°C 68.3°F20.2°C 75% 1.2 mph SSW1.9 kmh SSW 1.2 mph1.9 kmh 29.80 in1009.1 mb - 0.00 in0.0 mm 0.05 in1.3 mm
08:50 PM 76.5°F24.7°C 68.0°F20.0°C 75% Calm Calm 3.5 mph5.6 kmh 29.80 in1009.1 mb - 0.00 in0.0 mm 0.05 in1.3 mm
09:00 PM 76.4°F24.7°C 67.9°F19.9°C 75% Calm Calm 2.3 mph3.7 kmh 29.79 in1008.8 mb - 0.00 in0.0 mm 0.05 in1.3 mm
09:10 PM 76.2°F24.6°C 68.1°F20.1°C 76% 1.2 mph S1.9 kmh S 4.6 mph7.4 kmh 29.79 in1008.8 mb - 0.00 in0.0 mm 0.05 in1.3 mm
09:20 PM 76.0°F24.4°C 67.9°F19.9°C 76% Calm Calm 1.2 mph1.9 kmh 29.79 in1008.8 mb - 0.00 in0.0 mm 0.05 in1.3 mm
09:30 PM 75.5°F24.2°C 68.2°F20.1°C 78% Calm Calm -- 29.79 in1008.8 mb - 0.00 in0.0 mm 0.05 in1.3 mm
09:40 PM 75.0°F23.9°C 68.0°F20.0°C 79% Calm Calm -- 29.79 in1008.8 mb - 0.00 in0.0 mm 0.05 in1.3 mm
09:50 PM 74.6°F23.7°C 67.7°F19.8°C 79% Calm Calm -- 29.79 in1008.8 mb - 0.00 in0.0 mm 0.05 in1.3 mm
10:00 PM 74.7°F23.7°C 68.1°F20.1°C 80% 1.2 mph S1.9 kmh S 3.5 mph5.6 kmh 29.79 in1008.8 mb - 0.00 in0.0 mm 0.05 in1.3 mm
10:10 PM 75.2°F24.0°C 68.2°F20.1°C 79% 1.2 mph S1.9 kmh S 3.5 mph5.6 kmh 29.79 in1008.8 mb - 0.00 in0.0 mm 0.05 in1.3 mm
10:20 PM 75.6°F24.2°C 69.0°F20.6°C 80% 2.3 mph SSE3.7 kmh SSE 4.6 mph7.4 kmh 29.79 in1008.8 mb - 0.00 in0.0 mm 0.05 in1.3 mm
10:30 PM 75.9°F24.4°C 69.3°F20.7°C 80% 2.3 mph S3.7 kmh S 3.5 mph5.6 kmh 29.78 in1008.5 mb - 0.00 in0.0 mm 0.05 in1.3 mm
10:40 PM 76.1°F24.5°C 69.5°F20.8°C 80% 1.2 mph S1.9 kmh S 3.5 mph5.6 kmh 29.78 in1008.5 mb - 0.00 in0.0 mm 0.05 in1.3 mm
10:50 PM 76.4°F24.7°C 69.4°F20.8°C 79% 3.5 mph SSE5.6 kmh SSE 4.6 mph7.4 kmh 29.77 in1008.1 mb - 0.00 in0.0 mm 0.05 in1.3 mm
11:00 PM 76.8°F24.9°C 69.8°F21.0°C 79% 4.6 mph SSE7.4 kmh SSE 5.8 mph9.3 kmh 29.77 in1008.1 mb - 0.00 in0.0 mm 0.05 in1.3 mm
11:10 PM 77.2°F25.1°C 69.8°F21.0°C 78% 2.3 mph SSE3.7 kmh SSE 4.6 mph7.4 kmh 29.77 in1008.1 mb - 0.00 in0.0 mm 0.05 in1.3 mm
11:20 PM 77.4°F25.2°C 70.0°F21.1°C 78% 4.6 mph S7.4 kmh S 8.1 mph13.0 kmh 29.77 in1008.1 mb - 0.00 in0.0 mm 0.05 in1.3 mm
11:30 PM 77.8°F25.4°C 70.4°F21.3°C 78% 3.5 mph S5.6 kmh S 8.1 mph13.0 kmh 29.77 in1008.1 mb - 0.00 in0.0 mm 0.05 in1.3 mm
11:40 PM 77.9°F25.5°C 70.5°F21.4°C 78% 3.5 mph SSE5.6 kmh SSE 5.8 mph9.3 kmh 29.76 in1007.8 mb - 0.00 in0.0 mm 0.05 in1.3 mm
11:50 PM 78.0°F25.6°C 70.2°F21.2°C 77% 5.8 mph S9.3 kmh S 8.1 mph13.0 kmh 29.76 in1007.8 mb - 0.00 in0.0 mm 0.05 in1.3 mm